createdAt,value
2022-09-28T00:02:04.489Z,0.80
2022-09-28T00:06:06.913Z,0.97
2022-09-28T00:10:09.994Z,0.90
2022-09-28T00:14:11.314Z,0.93
2022-09-28T00:18:12.686Z,0.83
2022-09-28T00:22:13.951Z,1.00
2022-09-28T00:26:16.558Z,0.70
2022-09-28T00:30:17.830Z,0.90
2022-09-28T00:34:20.282Z,0.90
2022-09-28T00:38:21.484Z,0.80
2022-09-28T00:42:25.455Z,0.83
2022-09-28T00:46:31.136Z,1.10
2022-09-28T00:50:34.203Z,1.23
2022-09-28T00:54:35.806Z,1.13
2022-09-28T00:58:40.270Z,1.10
2022-09-28T01:02:42.160Z,1.00
2022-09-28T01:06:44.305Z,1.23
2022-09-28T01:10:45.715Z,1.40
2022-09-28T01:14:48.954Z,1.30
2022-09-28T01:18:56.047Z,1.20
2022-09-28T01:23:15.853Z,1.20
2022-09-28T01:27:20.299Z,1.30
2022-09-28T01:31:24.926Z,1.40
2022-09-28T01:35:28.550Z,1.20
2022-09-28T01:39:32.914Z,1.37
2022-09-28T01:43:37.438Z,1.50
2022-09-28T01:47:40.091Z,1.47
2022-09-28T01:51:43.607Z,1.50
2022-09-28T01:55:46.838Z,1.50
2022-09-28T01:59:53.746Z,1.73
2022-09-28T02:03:57.782Z,1.80
2022-09-28T02:08:02.460Z,2.10
2022-09-28T02:12:08.495Z,2.00
2022-09-28T02:16:14.181Z,2.10
2022-09-28T02:20:15.846Z,2.43
2022-09-28T02:24:22.313Z,2.50
2022-09-28T02:28:23.703Z,2.40
2022-09-28T02:32:27.135Z,2.60
2022-09-28T02:36:30.435Z,2.90
2022-09-28T02:40:33.343Z,3.00
2022-09-28T02:44:48.088Z,3.10
2022-09-28T02:49:20.971Z,3.10
2022-09-28T02:53:30.258Z,3.40
2022-09-28T02:57:37.430Z,3.87
2022-09-28T03:01:42.796Z,3.40
2022-09-28T03:05:47.471Z,3.80
2022-09-28T03:09:53.598Z,4.20
2022-09-28T03:13:55.487Z,4.70
2022-09-28T03:17:57.270Z,4.70
2022-09-28T03:21:59.848Z,4.67
2022-09-28T03:26:01.074Z,4.90
2022-09-28T03:30:02.543Z,4.30
2022-09-28T03:34:04.034Z,5.47
2022-09-28T03:38:06.747Z,5.37
2022-09-28T03:42:08.331Z,4.80
2022-09-28T03:46:09.751Z,5.03
2022-09-28T03:50:10.988Z,4.53
2022-09-28T03:54:13.625Z,4.50
2022-09-28T03:58:15.923Z,4.53
2022-09-28T04:02:17.240Z,4.10
2022-09-28T04:06:18.475Z,5.00
2022-09-28T04:10:21.035Z,4.50
2022-09-28T04:14:22.251Z,4.40
2022-09-28T04:18:24.011Z,5.17
2022-09-28T04:22:25.236Z,5.10
2022-09-28T04:26:28.000Z,5.40
2022-09-28T04:30:29.418Z,5.23
2022-09-28T04:34:35.129Z,5.70
2022-09-28T04:38:52.327Z,5.13
2022-09-28T04:42:56.483Z,5.13
2022-09-28T04:46:59.720Z,4.97
2022-09-28T04:51:04.328Z,5.63
2022-09-28T04:55:06.134Z,5.23
2022-09-28T04:59:08.820Z,5.10
2022-09-28T05:03:10.360Z,5.40
2022-09-28T05:07:11.624Z,5.10
2022-09-28T05:11:13.037Z,5.27
2022-09-28T05:15:15.840Z,5.30
2022-09-28T05:19:17.140Z,4.23
2022-09-28T05:23:18.458Z,4.53
2022-09-28T05:27:19.708Z,4.30
2022-09-28T05:31:22.363Z,4.73
2022-09-28T05:35:23.588Z,4.90
2022-09-28T05:39:25.069Z,4.50
2022-09-28T05:43:26.279Z,5.03
2022-09-28T05:47:29.284Z,4.77
2022-09-28T05:51:30.509Z,4.43
2022-09-28T05:55:32.194Z,4.50
2022-09-28T05:59:33.621Z,4.67
2022-09-28T06:03:36.178Z,5.10
2022-09-28T06:07:37.416Z,5.00
2022-09-28T06:11:38.687Z,4.53
2022-09-28T06:15:41.293Z,3.90
2022-09-28T06:19:43.877Z,4.03
2022-09-28T06:23:48.981Z,4.07
2022-09-28T06:27:54.161Z,3.80
2022-09-28T06:31:55.404Z,4.20
2022-09-28T06:35:59.853Z,3.97
2022-09-28T06:40:01.321Z,3.47
2022-09-28T06:44:02.740Z,3.80
2022-09-28T06:48:04.911Z,4.50
2022-09-28T06:52:07.484Z,4.27
2022-09-28T06:56:09.180Z,3.80
2022-09-28T07:00:11.221Z,3.90
2022-09-28T07:04:12.449Z,4.37
2022-09-28T07:08:16.961Z,3.90
2022-09-28T07:12:18.197Z,3.50
2022-09-28T07:16:24.111Z,3.27
2022-09-28T07:20:28.032Z,3.17
2022-09-28T07:24:30.872Z,3.27
2022-09-28T07:28:32.292Z,3.17
2022-09-28T07:32:33.544Z,3.30
2022-09-28T07:36:36.688Z,3.00
2022-09-28T07:40:39.266Z,3.37
2022-09-28T07:44:40.586Z,2.73
2022-09-28T07:48:42.568Z,3.10
2022-09-28T07:52:43.786Z,2.97
2022-09-28T07:56:47.069Z,3.10
2022-09-28T08:00:48.927Z,2.90
2022-09-28T08:04:50.260Z,2.80
2022-09-28T08:08:51.500Z,3.30
2022-09-28T08:12:55.173Z,2.83
2022-09-28T08:16:57.261Z,3.10
2022-09-28T08:20:58.792Z,3.00
2022-09-28T08:25:00.006Z,2.50
2022-09-28T08:29:02.585Z,2.30
2022-09-28T08:33:03.816Z,2.47
2022-09-28T08:37:05.241Z,2.00
2022-09-28T08:41:11.434Z,1.60
2022-09-28T08:45:17.029Z,1.40
2022-09-28T08:49:25.246Z,1.73
2022-09-28T08:53:32.965Z,1.60
2022-09-28T08:57:37.609Z,1.57
2022-09-28T09:01:42.382Z,1.10
2022-09-28T09:05:49.904Z,1.30
2022-09-28T09:09:57.053Z,1.40
2022-09-28T09:14:17.177Z,1.10
2022-09-28T09:18:25.249Z,1.20
2022-09-28T09:22:32.814Z,1.27
2022-09-28T09:26:36.214Z,1.30
2022-09-28T09:30:41.306Z,1.20
2022-09-28T09:35:04.117Z,1.10
2022-09-28T09:39:12.617Z,0.83
2022-09-28T09:43:29.342Z,0.93
2022-09-28T09:47:35.581Z,0.70
2022-09-28T09:51:42.701Z,0.90
2022-09-28T09:55:45.370Z,0.80
2022-09-28T09:59:47.125Z,0.90
2022-09-28T10:03:48.405Z,1.30
2022-09-28T10:07:54.417Z,1.20
2022-09-28T10:11:55.877Z,1.10
2022-09-28T10:15:57.303Z,0.90
2022-09-28T10:19:58.721Z,1.00
2022-09-28T10:24:01.457Z,1.20
2022-09-28T10:28:04.718Z,1.20
2022-09-28T10:32:16.897Z,1.20
2022-09-28T10:36:18.169Z,1.17
2022-09-28T10:40:28.424Z,1.20
2022-09-28T10:44:31.684Z,1.07
2022-09-28T10:48:38.960Z,1.00
2022-09-28T10:52:41.781Z,1.47
2022-09-28T10:56:45.044Z,0.90
2022-09-28T11:00:48.798Z,1.20
2022-09-28T11:04:51.518Z,1.33
2022-09-28T11:08:53.185Z,1.10
2022-09-28T11:12:55.917Z,1.00
2022-09-28T11:17:16.305Z,1.33
2022-09-28T11:21:18.437Z,1.07
2022-09-28T11:25:21.718Z,0.97
2022-09-28T11:29:26.268Z,0.90
2022-09-28T11:33:29.692Z,0.90
2022-09-28T11:37:51.130Z,0.60
2022-09-28T11:41:55.457Z,0.83
2022-09-28T11:46:01.390Z,1.00
2022-09-28T11:50:04.879Z,0.80
2022-09-28T11:54:11.606Z,0.77
2022-09-28T11:58:17.621Z,1.20
2022-09-28T12:02:22.981Z,1.17
2022-09-28T12:06:28.196Z,1.03
2022-09-28T12:10:35.126Z,0.90
2022-09-28T12:14:38.993Z,0.80
2022-09-28T12:18:45.747Z,0.80
2022-09-28T12:22:52.145Z,0.80
2022-09-28T12:26:54.792Z,1.37
2022-09-28T12:30:57.299Z,1.00
2022-09-28T12:34:59.983Z,0.87
2022-09-28T12:39:40.692Z,1.07
2022-09-28T12:43:41.062Z,1.37
2022-09-28T12:47:48.918Z,0.90
2022-09-28T12:51:52.217Z,1.20
2022-09-28T12:55:56.846Z,0.90
2022-09-28T13:00:02.581Z,1.30
2022-09-28T13:04:13.557Z,1.10
2022-09-28T13:08:20.772Z,1.20
2022-09-28T13:12:28.869Z,1.10
2022-09-28T13:16:32.910Z,1.00
2022-09-28T13:20:49.029Z,0.97
2022-09-28T13:24:54.502Z,0.90
2022-09-28T13:29:03.153Z,1.10
2022-09-28T13:33:05.681Z,1.00
2022-09-28T13:37:19.086Z,1.03
2022-09-28T13:41:25.213Z,1.00
2022-09-28T13:45:31.073Z,1.30
2022-09-28T13:49:39.973Z,1.00
2022-09-28T13:53:47.037Z,0.90
2022-09-28T13:57:53.050Z,0.90
2022-09-28T14:02:01.659Z,1.17
2022-09-28T14:06:07.806Z,1.00
2022-09-28T14:10:19.363Z,1.23
2022-09-28T14:14:29.394Z,0.90
2022-09-28T14:18:31.480Z,1.10
2022-09-28T14:22:35.350Z,1.37
2022-09-28T14:26:48.035Z,1.30
2022-09-28T14:30:51.627Z,1.30
2022-09-28T14:34:56.633Z,1.30
2022-09-28T14:38:57.871Z,1.50
2022-09-28T14:43:26.156Z,1.27
2022-09-28T14:47:35.641Z,1.43
2022-09-28T14:51:44.262Z,1.27
2022-09-28T14:55:46.721Z,1.30
2022-09-28T14:59:48.051Z,1.23
2022-09-28T15:03:51.940Z,1.20
2022-09-28T15:07:53.729Z,1.00
2022-09-28T15:11:58.849Z,1.53
2022-09-28T15:16:03.389Z,1.10
2022-09-28T15:20:22.831Z,1.13
2022-09-28T15:24:24.987Z,1.10
2022-09-28T15:28:26.241Z,1.10
2022-09-28T15:32:29.265Z,1.20
2022-09-28T15:36:32.914Z,1.20
2022-09-28T15:40:37.317Z,1.40
2022-09-28T15:44:39.381Z,1.20
2022-09-28T15:48:45.410Z,1.30
2022-09-28T15:52:53.121Z,1.00
2022-09-28T15:56:55.946Z,1.27
2022-09-28T16:01:23.194Z,0.90
2022-09-28T16:05:32.174Z,1.00
2022-09-28T16:09:52.850Z,0.80
2022-09-28T16:13:56.054Z,0.80
2022-09-28T16:17:59.497Z,0.67
2022-09-28T16:22:02.106Z,0.87
2022-09-28T16:26:05.729Z,0.70
2022-09-28T16:30:14.983Z,0.80
2022-09-28T16:34:17.828Z,0.80
2022-09-28T16:38:19.735Z,0.70
2022-09-28T16:42:22.479Z,0.70
2022-09-28T16:46:27.727Z,0.63
2022-09-28T16:50:29.019Z,0.80
2022-09-28T16:54:32.759Z,0.70
2022-09-28T16:58:35.601Z,0.80
2022-09-28T17:02:46.362Z,1.00
2022-09-28T17:06:49.206Z,0.90
2022-09-28T17:11:13.152Z,0.90
2022-09-28T17:15:14.265Z,1.00
2022-09-28T17:19:17.589Z,1.10
2022-09-28T17:27:22.716Z,1.30
2022-09-28T17:31:25.685Z,1.60
2022-09-28T17:35:26.981Z,1.33
2022-09-28T17:39:28.206Z,1.20
2022-09-28T17:43:29.623Z,1.50
2022-09-28T17:47:34.277Z,1.30
2022-09-28T17:51:36.502Z,1.30
2022-09-28T17:55:38.664Z,1.30
2022-09-28T17:59:39.898Z,1.40
2022-09-28T18:03:42.474Z,1.50
2022-09-28T18:07:47.430Z,1.10
2022-09-28T18:11:51.391Z,1.03
2022-09-28T18:15:53.313Z,1.20
2022-09-28T18:19:55.997Z,1.20
2022-09-28T18:23:57.205Z,1.20
2022-09-28T18:27:58.486Z,1.20
2022-09-28T18:32:00.157Z,1.20
2022-09-28T18:36:03.649Z,0.90
2022-09-28T18:40:06.081Z,1.30
2022-09-28T18:44:07.474Z,1.10
2022-09-28T18:48:08.891Z,1.20
2022-09-28T18:52:11.513Z,1.50
2022-09-28T18:56:14.127Z,1.40
2022-09-28T19:00:15.404Z,1.37
2022-09-28T19:04:17.210Z,1.40
2022-09-28T19:08:22.227Z,1.40
2022-09-28T19:12:25.517Z,1.20
2022-09-28T19:16:27.525Z,1.57
2022-09-28T19:20:28.926Z,1.63
2022-09-28T19:24:31.677Z,1.80
2022-09-28T19:28:33.293Z,1.80
2022-09-28T19:32:34.495Z,1.70
2022-09-28T19:36:35.950Z,1.63
2022-09-28T19:40:38.635Z,1.47
2022-09-28T19:44:40.106Z,1.60
2022-09-28T19:48:43.061Z,1.50
2022-09-28T19:52:44.337Z,1.67
2022-09-28T19:56:46.918Z,2.43
2022-09-28T20:00:48.355Z,1.73
2022-09-28T20:04:49.732Z,1.63
2022-09-28T20:08:51.234Z,1.60
2022-09-28T20:12:53.826Z,1.77
2022-09-28T20:16:55.096Z,1.60
2022-09-28T20:21:00.798Z,1.80
2022-09-28T20:25:02.055Z,1.70
2022-09-28T20:29:05.313Z,1.80
2022-09-28T20:33:06.579Z,1.63
2022-09-28T20:37:08.005Z,1.80
2022-09-28T20:41:10.178Z,1.57
2022-09-28T20:45:12.920Z,1.50
2022-09-28T20:49:14.155Z,1.60
2022-09-28T20:53:15.406Z,1.60
2022-09-28T20:57:16.634Z,1.63
2022-09-28T21:01:20.264Z,1.43
2022-09-28T21:05:21.682Z,1.57
2022-09-28T21:09:23.098Z,1.50
2022-09-28T21:13:24.973Z,2.10
2022-09-28T21:17:27.719Z,1.80
2022-09-28T21:21:29.125Z,1.60
2022-09-28T21:25:30.542Z,1.80
2022-09-28T21:29:31.758Z,1.80
2022-09-28T21:33:34.331Z,1.63
2022-09-28T21:37:35.950Z,1.67
2022-09-28T21:41:37.435Z,1.90
2022-09-28T21:45:38.674Z,1.87
2022-09-28T21:49:41.409Z,1.50
2022-09-28T21:53:43.854Z,1.77
2022-09-28T21:57:45.502Z,2.03
2022-09-28T22:01:46.920Z,1.90
2022-09-28T22:05:51.375Z,1.90
2022-09-28T22:09:53.594Z,1.90
2022-09-28T22:13:55.988Z,1.70
2022-09-28T22:17:57.631Z,1.70
2022-09-28T22:22:00.230Z,1.70
2022-09-28T22:26:02.069Z,1.53
2022-09-28T22:30:03.759Z,1.90
2022-09-28T22:34:05.230Z,1.90
2022-09-28T22:38:07.847Z,1.97
2022-09-28T22:42:09.316Z,1.60
2022-09-28T22:46:11.691Z,1.43
2022-09-28T22:50:13.041Z,1.53
2022-09-28T22:54:15.672Z,1.50
2022-09-28T22:58:16.913Z,1.30
2022-09-28T23:02:18.171Z,1.60
2022-09-28T23:06:20.638Z,1.57
2022-09-28T23:10:23.251Z,1.50
2022-09-28T23:14:24.685Z,1.63
2022-09-28T23:18:27.662Z,1.40
2022-09-28T23:22:28.932Z,1.60
2022-09-28T23:26:32.565Z,1.50
2022-09-28T23:30:33.790Z,1.50
2022-09-28T23:34:35.390Z,1.33
2022-09-28T23:38:36.838Z,1.23
2022-09-28T23:42:39.570Z,1.57
2022-09-28T23:46:40.844Z,1.17
2022-09-28T23:50:42.274Z,1.67
2022-09-28T23:54:43.479Z,1.20
2022-09-28T23:58:46.273Z,1.40
